Time;durP1;ratioP1;P1;durP2;ratioP2;P2;SDS_P1;SDS_P2;PMS_P1;PMS_P2;Temp;Humidity;BMP_temperature;BMP_pressure;BME280_temperature;BME280_humidity;BME280_pressure;Samples;Min_cycle;Max_cycle;Signal;HPM_P1;HPM_P2
2021/12/02 00:00:27;;;;;;;1.10;0.80;;;5.70;99.90;;;;;;5054293;28;20087;-73
2021/12/02 00:02:58;;;;;;;1.48;0.80;;;5.70;99.90;;;;;;5053163;28;20128;-74
2021/12/02 00:05:30;;;;;;;0.90;0.60;;;5.70;99.90;;;;;;5052136;28;20060;-74
2021/12/02 00:08:02;;;;;;;0.90;0.50;;;5.60;99.90;;;;;;5052029;28;20453;-73
2021/12/02 00:10:35;;;;;;;0.60;0.50;;;5.50;99.90;;;;;;5053357;28;20284;-73
2021/12/02 00:13:08;;;;;;;1.08;0.75;;;5.50;99.90;;;;;;5052103;28;20466;-74
2021/12/02 00:23:55;;;;;;;0.70;0.68;;;5.50;99.90;;;;;;5051913;28;20144;-74
2021/12/02 00:26:29;;;;;;;2.08;0.82;;;5.50;99.90;;;;;;5052686;28;20123;-74
2021/12/02 00:29:03;;;;;;;0.80;0.60;;;5.40;99.90;;;;;;5051980;28;20148;-74
2021/12/02 00:31:38;;;;;;;1.45;0.77;;;5.40;99.90;;;;;;5035948;28;20045;-73
2021/12/02 00:34:07;;;;;;;1.77;0.68;;;5.40;99.90;;;;;;5053269;28;20127;-74
2021/12/02 00:36:36;;;;;;;0.80;0.65;;;5.50;99.90;;;;;;5052509;28;20124;-73
2021/12/02 00:39:12;;;;;;;0.85;0.60;;;5.50;99.90;;;;;;5052833;28;20055;-74
2021/12/02 00:41:44;;;;;;;1.30;0.60;;;5.50;99.90;;;;;;5051574;28;20112;-74
2021/12/02 00:44:12;;;;;;;1.00;0.70;;;5.40;99.90;;;;;;5051625;28;20115;-74
2021/12/02 00:46:45;;;;;;;0.80;0.60;;;5.40;99.90;;;;;;5051506;28;20045;-74
2021/12/02 00:49:18;;;;;;;0.77;0.40;;;5.40;99.90;;;;;;5052298;28;20149;-74
2021/12/02 00:51:56;;;;;;;0.88;0.60;;;5.40;99.90;;;;;;5035172;28;20474;-73
2021/12/02 00:54:30;;;;;;;1.20;0.75;;;5.40;99.90;;;;;;5052408;28;20047;-74
2021/12/02 00:56:57;;;;;;;0.80;0.60;;;5.40;99.90;;;;;;5034021;28;20136;-74
2021/12/02 00:59:29;;;;;;;2.15;0.60;;;5.40;99.90;;;;;;5050947;28;20139;-74
2021/12/02 01:02:01;;;;;;;0.82;0.60;;;5.40;99.90;;;;;;5035005;28;20471;-73
2021/12/02 01:04:33;;;;;;;2.30;0.60;;;5.40;99.90;;;;;;5035211;28;20535;-73
2021/12/02 01:07:05;;;;;;;0.75;0.73;;;5.40;99.90;;;;;;5051713;28;20494;-73
2021/12/02 01:09:37;;;;;;;1.08;0.75;;;5.40;99.90;;;;;;5034883;28;20045;-73
2021/12/02 01:12:08;;;;;;;0.82;0.68;;;5.30;99.90;;;;;;5050793;28;20469;-74
2021/12/02 01:14:42;;;;;;;1.20;0.90;;;5.30;99.90;;;;;;5050843;28;20594;-74
2021/12/02 01:17:09;;;;;;;1.00;0.65;;;5.30;99.90;;;;;;5051025;28;20123;-74
2021/12/02 01:19:41;;;;;;;1.35;0.75;;;5.30;99.90;;;;;;5052800;28;20133;-73
2021/12/02 01:22:10;;;;;;;0.63;0.60;;;5.30;99.90;;;;;;5050265;28;20076;-73
2021/12/02 01:24:48;;;;;;;0.93;0.65;;;5.30;99.90;;;;;;5038858;28;20471;-73
2021/12/02 01:27:23;;;;;;;0.80;0.70;;;5.30;99.90;;;;;;5061842;28;20068;-73
2021/12/02 01:29:52;;;;;;;1.67;0.77;;;5.40;99.90;;;;;;5053349;28;20136;-73
2021/12/02 01:32:20;;;;;;;1.95;1.50;;;5.40;99.90;;;;;;5048603;28;20131;-73
2021/12/02 01:34:54;;;;;;;0.73;0.45;;;5.50;99.90;;;;;;5051390;28;20055;-73
2021/12/02 01:37:27;;;;;;;0.75;0.60;;;5.50;99.90;;;;;;5050956;28;20067;-73
2021/12/02 01:39:56;;;;;;;1.02;0.60;;;5.50;99.90;;;;;;5034584;28;20136;-73
2021/12/02 01:42:29;;;;;;;1.02;0.50;;;5.50;99.90;;;;;;5051026;28;20043;-72
2021/12/02 01:45:02;;;;;;;1.10;0.50;;;5.50;99.90;;;;;;5050974;28;20043;-73
2021/12/02 01:47:44;;;;;;;0.40;0.40;;;5.50;99.90;;;;;;5034904;28;20041;-73
2021/12/02 01:50:15;;;;;;;1.02;0.40;;;5.40;99.90;;;;;;5050895;28;20052;-73
2021/12/02 01:52:59;;;;;;;1.60;0.60;;;5.20;99.90;;;;;;5051825;28;20053;-73
2021/12/02 01:55:28;;;;;;;2.63;0.47;;;4.90;99.90;;;;;;5051206;28;20128;-73
2021/12/02 01:58:01;;;;;;;0.30;0.30;;;4.60;99.90;;;;;;5050358;28;20183;-73
2021/12/02 02:00:33;;;;;;;0.43;0.40;;;4.40;99.90;;;;;;5050610;28;20044;-74
2021/12/02 02:03:05;;;;;;;1.55;0.30;;;4.30;99.90;;;;;;5051799;28;20640;-73
2021/12/02 02:05:33;;;;;;;0.65;0.30;;;4.20;99.90;;;;;;5050805;28;20083;-73
2021/12/02 02:08:03;;;;;;;0.40;0.25;;;4.10;99.90;;;;;;5050181;28;20072;-73
2021/12/02 02:10:39;;;;;;;1.55;0.40;;;4.10;99.90;;;;;;5050430;28;20135;-73
2021/12/02 02:13:08;;;;;;;0.30;0.30;;;4.00;99.90;;;;;;5050275;28;20495;-73
2021/12/02 02:15:44;;;;;;;0.35;0.20;;;4.00;99.90;;;;;;5051530;28;20487;-73
2021/12/02 02:20:50;;;;;;;0.93;0.35;;;3.90;99.90;;;;;;5050255;28;20159;-73
2021/12/02 02:23:24;;;;;;;1.45;0.32;;;4.00;99.90;;;;;;5051606;28;20045;-73
2021/12/02 02:25:56;;;;;;;;;;;3.90;99.90;;;;;;5051863;28;20132;-73
2021/12/02 02:28:29;;;;;;;0.40;0.32;;;3.90;99.90;;;;;;5050381;28;19927;-73
2021/12/02 02:31:01;;;;;;;0.57;0.40;;;3.90;99.90;;;;;;5034213;28;20140;-73
2021/12/02 02:33:37;;;;;;;0.25;0.20;;;3.80;99.90;;;;;;5051870;28;20048;-73
2021/12/02 02:36:08;;;;;;;0.65;0.40;;;3.80;99.90;;;;;;5049724;28;20575;-74
2021/12/02 02:38:40;;;;;;;1.17;0.20;;;3.80;99.90;;;;;;5050041;28;20060;-73
2021/12/02 02:41:19;;;;;;;0.30;0.30;;;3.80;99.90;;;;;;5049787;28;20148;-73
2021/12/02 02:43:50;;;;;;;1.48;0.40;;;3.80;99.90;;;;;;5050059;28;20128;-73
2021/12/02 02:46:28;;;;;;;0.50;0.30;;;3.80;99.90;;;;;;5049648;28;20125;-73
2021/12/02 02:49:06;;;;;;;0.52;0.25;;;3.70;99.90;;;;;;5033584;28;20055;-73
2021/12/02 02:51:40;;;;;;;1.40;0.40;;;3.70;99.90;;;;;;5049639;28;20049;-73
2021/12/02 02:54:14;;;;;;;0.80;0.30;;;3.70;99.90;;;;;;5049774;28;20131;-73
2021/12/02 02:56:51;;;;;;;1.52;0.38;;;3.70;99.90;;;;;;5049442;28;20156;-74
2021/12/02 02:59:41;;;;;;;0.55;0.30;;;3.70;99.90;;;;;;5036661;28;20132;-74
2021/12/02 03:02:38;;;;;;;0.77;0.32;;;3.80;99.90;;;;;;5050139;28;20574;-73
2021/12/02 03:08:18;;;;;;;1.30;0.55;;;3.70;99.90;;;;;;5011966;28;20060;-73
2021/12/02 03:10:53;;;;;;;1.45;0.63;;;3.80;99.90;;;;;;5027960;28;20136;-73
2021/12/02 03:13:38;;;;;;;2.55;0.50;;;3.80;99.90;;;;;;5013057;28;20069;-74
2021/12/02 03:19:00;;;;;;;1.65;0.50;;;3.90;99.90;;;;;;5049495;28;20045;-74
2021/12/02 03:21:28;;;;;;;2.67;0.60;;;3.90;99.90;;;;;;5049211;28;20562;-74
2021/12/02 03:24:01;;;;;;;1.83;0.50;;;3.90;99.90;;;;;;5049462;28;20044;-74
2021/12/02 03:26:34;;;;;;;1.38;0.60;;;3.90;99.90;;;;;;5049084;28;20072;-74
2021/12/02 03:29:01;;;;;;;1.52;0.85;;;3.90;99.90;;;;;;5049475;28;20069;-74
2021/12/02 03:31:34;;;;;;;2.63;0.80;;;4.00;99.90;;;;;;5050766;28;20037;-74
2021/12/02 03:34:07;;;;;;;1.95;0.47;;;4.00;99.90;;;;;;5050544;28;20071;-74
2021/12/02 03:36:41;;;;;;;1.65;0.50;;;4.00;99.90;;;;;;5049108;28;20135;-74
2021/12/02 03:39:13;;;;;;;1.20;0.57;;;4.00;99.90;;;;;;5049294;28;20064;-74
2021/12/02 03:41:46;;;;;;;1.50;0.45;;;4.00;99.90;;;;;;5049144;28;20471;-73
2021/12/02 03:44:17;;;;;;;0.82;0.60;;;4.00;99.90;;;;;;5049178;28;20068;-74
2021/12/02 03:46:50;;;;;;;2.00;0.55;;;4.10;99.90;;;;;;5033063;28;20460;-73
2021/12/02 03:49:22;;;;;;;0.77;0.60;;;4.10;99.90;;;;;;5050625;28;20048;-74
2021/12/02 03:51:55;;;;;;;2.13;0.93;;;4.10;99.90;;;;;;5049254;28;20131;-74
2021/12/02 03:54:22;;;;;;;0.80;0.50;;;4.10;99.90;;;;;;5049188;28;20144;-74
2021/12/02 03:56:49;;;;;;;1.25;0.55;;;4.10;99.90;;;;;;5049949;28;20083;-73
2021/12/02 03:59:22;;;;;;;1.00;0.68;;;4.10;99.90;;;;;;5050293;28;20107;-74
2021/12/02 04:01:53;;;;;;;1.05;0.90;;;4.10;99.90;;;;;;5049028;28;20041;-74
2021/12/02 04:04:25;;;;;;;1.58;0.90;;;4.00;99.90;;;;;;5033248;28;20041;-74
2021/12/02 04:06:58;;;;;;;1.63;1.00;;;3.90;99.90;;;;;;5049909;28;20059;-74
2021/12/02 04:09:41;;;;;;;1.52;1.17;;;3.80;99.90;;;;;;5048956;28;20053;-74
2021/12/02 04:14:46;;;;;;;1.50;0.82;;;3.90;99.90;;;;;;5050854;28;20127;-74
2021/12/02 04:17:28;;;;;;;1.92;1.10;;;3.80;99.90;;;;;;5033550;28;20475;-73
2021/12/02 04:20:01;;;;;;;1.58;1.00;;;3.80;99.90;;;;;;5054710;28;20594;-74
2021/12/02 04:22:28;;;;;;;1.60;1.20;;;3.80;99.90;;;;;;5054268;28;20061;-73
2021/12/02 04:24:59;;;;;;;1.77;1.00;;;3.80;99.90;;;;;;5053156;28;20457;-73
2021/12/02 04:27:31;;;;;;;1.58;1.20;;;3.90;99.90;;;;;;5052791;28;20051;-73
2021/12/02 04:29:58;;;;;;;1.10;1.00;;;3.90;99.90;;;;;;5053122;28;20083;-73
2021/12/02 04:32:30;;;;;;;1.50;1.00;;;3.90;99.90;;;;;;5052668;28;20129;-73
2021/12/02 04:34:56;;;;;;;1.38;1.15;;;3.90;99.90;;;;;;5053058;28;20076;-74
2021/12/02 04:37:25;;;;;;;1.80;1.40;;;3.90;99.90;;;;;;5053955;28;20052;-73
2021/12/02 04:39:54;;;;;;;1.20;1.10;;;3.90;99.90;;;;;;5052938;28;20040;-73
2021/12/02 04:42:26;;;;;;;1.48;1.23;;;3.90;99.90;;;;;;5036749;28;20072;-73
2021/12/02 04:44:58;;;;;;;1.58;1.10;;;3.90;99.90;;;;;;5052549;28;20047;-73
2021/12/02 04:47:25;;;;;;;1.95;1.35;;;3.90;99.90;;;;;;5052460;28;20076;-73
2021/12/02 04:49:51;;;;;;;1.48;1.00;;;4.00;99.90;;;;;;5052518;28;20068;-73
2021/12/02 04:52:24;;;;;;;1.60;1.30;;;4.00;99.90;;;;;;5051920;28;20076;-73
2021/12/02 04:54:56;;;;;;;1.30;1.20;;;4.00;99.90;;;;;;5052089;28;20136;-74
2021/12/02 04:57:28;;;;;;;1.58;1.42;;;4.00;99.90;;;;;;5053089;28;20123;-73
2021/12/02 05:00:00;;;;;;;1.92;1.15;;;4.00;99.90;;;;;;5051797;28;20044;-73
2021/12/02 05:02:31;;;;;;;1.63;1.27;;;4.00;99.90;;;;;;5053131;28;20478;-73
2021/12/02 05:04:58;;;;;;;1.45;1.30;;;4.10;99.90;;;;;;5051767;28;20067;-73
2021/12/02 05:07:30;;;;;;;1.35;1.23;;;4.10;99.90;;;;;;5051345;28;20041;-74
2021/12/02 05:10:04;;;;;;;1.80;1.20;;;4.20;99.90;;;;;;5051963;28;20128;-74
2021/12/02 05:12:36;;;;;;;1.40;1.15;;;4.20;99.90;;;;;;5035823;28;20140;-73
2021/12/02 05:15:08;;;;;;;1.25;0.95;;;4.20;99.90;;;;;;5050868;28;20132;-74
2021/12/02 05:17:40;;;;;;;1.60;1.10;;;4.20;99.90;;;;;;5030197;28;20079;-73
2021/12/02 05:20:12;;;;;;;1.80;1.17;;;4.20;99.90;;;;;;5032044;28;20128;-74
2021/12/02 05:22:39;;;;;;;2.95;1.25;;;4.30;99.90;;;;;;5030942;28;20041;-73
2021/12/02 05:25:06;;;;;;;1.55;1.00;;;4.30;99.90;;;;;;5030610;28;20045;-74
2021/12/02 05:27:33;;;;;;;1.20;1.00;;;4.20;99.90;;;;;;5030583;28;20140;-73
2021/12/02 05:30:06;;;;;;;1.73;1.10;;;4.20;99.90;;;;;;5031089;28;20135;-74
2021/12/02 05:32:38;;;;;;;1.55;1.20;;;4.20;99.90;;;;;;5030857;28;20079;-74
2021/12/02 05:35:10;;;;;;;1.67;1.10;;;4.20;99.90;;;;;;5031444;28;20053;-74
2021/12/02 05:37:37;;;;;;;2.47;1.00;;;4.20;99.90;;;;;;5031008;28;20072;-73
2021/12/02 05:40:05;;;;;;;1.30;1.17;;;4.20;99.90;;;;;;5031337;28;20073;-74
2021/12/02 05:42:31;;;;;;;1.10;1.00;;;4.20;99.90;;;;;;5032424;28;20146;-73
2021/12/02 05:45:05;;;;;;;2.03;1.30;;;4.00;99.90;;;;;;5032721;28;20038;-74
2021/12/02 05:47:36;;;;;;;1.52;1.17;;;4.00;99.90;;;;;;5014919;28;20383;-74
2021/12/02 05:50:09;;;;;;;1.40;1.10;;;3.90;99.90;;;;;;5050492;28;20555;-74
2021/12/02 05:52:41;;;;;;;1.23;0.93;;;3.80;99.90;;;;;;5051563;28;20558;-74
2021/12/02 05:55:08;;;;;;;1.73;1.20;;;3.80;99.90;;;;;;5034699;28;20288;-73
2021/12/02 05:57:35;;;;;;;1.90;1.20;;;3.80;99.90;;;;;;5053582;28;20128;-73
2021/12/02 06:00:09;;;;;;;1.75;1.20;;;3.70;99.90;;;;;;5054955;28;20132;-74
2021/12/02 06:02:40;;;;;;;1.30;0.90;;;3.60;99.90;;;;;;5052033;28;20044;-74
2021/12/02 06:05:17;;;;;;;1.95;1.20;;;3.60;99.90;;;;;;5052950;28;20125;-73
2021/12/02 06:07:44;;;;;;;2.13;1.70;;;3.60;99.90;;;;;;5050877;28;20076;-74
2021/12/02 06:10:11;;;;;;;3.63;2.83;;;3.60;99.90;;;;;;5044767;28;20112;-74
2021/12/02 06:12:44;;;;;;;2.72;1.33;;;3.60;99.90;;;;;;5035101;28;20140;-74
2021/12/02 06:15:11;;;;;;;2.83;1.45;;;3.60;99.90;;;;;;5050324;28;20115;-74
2021/12/02 06:17:38;;;;;;;1.70;1.13;;;3.60;99.90;;;;;;5050329;28;20045;-73
2021/12/02 06:20:07;;;;;;;2.50;1.85;;;3.60;99.90;;;;;;5049103;28;20470;-74
2021/12/02 06:22:39;;;;;;;3.35;1.70;;;3.60;99.90;;;;;;5034822;28;20046;-74
2021/12/02 06:27:51;;;;;;;4.63;1.90;;;3.60;99.90;;;;;;5029846;28;20474;-74
2021/12/02 06:30:20;;;;;;;1.73;1.35;;;3.60;99.90;;;;;;5016757;28;20076;-78
2021/12/02 06:32:47;;;;;;;1.90;1.35;;;3.60;99.90;;;;;;5049488;28;20077;-74
2021/12/02 06:35:20;;;;;;;1.83;1.40;;;3.60;99.90;;;;;;5049033;28;20087;-73
2021/12/02 06:37:47;;;;;;;1.95;1.40;;;3.70;99.90;;;;;;5040963;28;20127;-74
2021/12/02 06:40:19;;;;;;;2.63;1.20;;;3.70;99.90;;;;;;5048882;28;20037;-73
2021/12/02 06:42:46;;;;;;;2.80;1.30;;;3.70;99.90;;;;;;5044345;28;20033;-73
2021/12/02 06:45:19;;;;;;;3.70;1.40;;;3.70;99.90;;;;;;5047855;28;20067;-74
2021/12/02 06:47:52;;;;;;;3.47;2.58;;;3.70;99.90;;;;;;5045069;28;20087;-74
2021/12/02 06:50:25;;;;;;;2.63;1.30;;;3.70;99.90;;;;;;5041599;28;20120;-73
2021/12/02 06:52:56;;;;;;;3.35;1.40;;;3.70;99.90;;;;;;5046166;28;20103;-73
2021/12/02 06:55:28;;;;;;;1.88;1.15;;;3.70;99.90;;;;;;5029070;28;20571;-73
2021/12/02 06:58:00;;;;;;;3.95;1.73;;;3.70;99.90;;;;;;5037027;28;20519;-73
2021/12/02 07:00:32;;;;;;;2.05;1.77;;;3.70;99.90;;;;;;5042567;28;20044;-73
2021/12/02 07:03:04;;;;;;;3.05;1.48;;;3.70;99.90;;;;;;5046817;28;20139;-73
2021/12/02 07:05:35;;;;;;;1.23;1.05;;;3.60;99.90;;;;;;5027471;28;20435;-73
2021/12/02 07:08:04;;;;;;;1.65;1.30;;;3.60;99.90;;;;;;5042585;28;20137;-74
2021/12/02 07:10:32;;;;;;;1.30;0.98;;;3.60;99.90;;;;;;5026800;28;20080;-74
2021/12/02 07:13:05;;;;;;;1.85;1.13;;;3.60;99.90;;;;;;5044123;28;20079;-73
2021/12/02 07:15:34;;;;;;;1.45;1.20;;;3.60;99.90;;;;;;5050094;28;20065;-74
2021/12/02 07:18:12;;;;;;;2.83;1.40;;;3.50;99.90;;;;;;5033408;28;20128;-74
2021/12/02 07:20:41;;;;;;;2.03;1.40;;;3.50;99.90;;;;;;5030211;28;20125;-73
2021/12/02 07:23:08;;;;;;;2.95;1.20;;;3.40;99.90;;;;;;5043604;28;20298;-73
2021/12/02 07:25:40;;;;;;;1.35;0.98;;;3.40;99.90;;;;;;5031692;28;20454;-74
2021/12/02 07:28:13;;;;;;;3.95;1.85;;;3.40;99.90;;;;;;5035211;28;20056;-73
2021/12/02 07:30:41;;;;;;;2.10;1.17;;;3.40;99.90;;;;;;5047849;28;20100;-74
2021/12/02 07:33:10;;;;;;;3.67;1.30;;;3.40;99.90;;;;;;5049024;28;20057;-74
2021/12/02 07:35:42;;;;;;;1.95;1.27;;;3.50;99.90;;;;;;5050148;28;20120;-73
2021/12/02 07:38:08;;;;;;;2.83;1.35;;;3.50;99.90;;;;;;5031765;28;20111;-73
2021/12/02 07:40:37;;;;;;;2.70;1.00;;;3.50;99.90;;;;;;5049125;28;20053;-74
2021/12/02 07:43:09;;;;;;;6.15;4.45;;;3.50;99.90;;;;;;5049011;28;20051;-75
2021/12/02 07:45:36;;;;;;;4.15;1.73;;;3.60;99.90;;;;;;5049702;28;20508;-73
2021/12/02 07:48:09;;;;;;;2.03;1.13;;;3.60;99.90;;;;;;5044421;28;20037;-73
2021/12/02 07:50:41;;;;;;;2.40;1.10;;;3.60;99.90;;;;;;5030784;28;20535;-74
2021/12/02 07:53:14;;;;;;;1.77;1.20;;;3.60;99.90;;;;;;5043356;28;20124;-74
2021/12/02 07:55:48;;;;;;;2.60;1.40;;;3.70;99.90;;;;;;5041571;28;20435;-74
2021/12/02 07:58:16;;;;;;;1.75;1.00;;;3.70;99.90;;;;;;5045531;28;20037;-74
2021/12/02 08:00:49;;;;;;;1.98;1.20;;;3.70;99.90;;;;;;5049462;28;20127;-75
2021/12/02 08:03:21;;;;;;;2.07;1.10;;;3.70;99.90;;;;;;5049562;28;20040;-74
2021/12/02 08:05:53;;;;;;;1.17;0.88;;;3.70;99.90;;;;;;5030161;28;20053;-75
2021/12/02 08:08:25;;;;;;;3.25;1.17;;;3.70;99.90;;;;;;5040205;28;20144;-74
2021/12/02 08:10:57;;;;;;;2.80;1.10;;;3.70;99.90;;;;;;5052455;28;20033;-73
2021/12/02 08:13:30;;;;;;;6.18;3.75;;;3.70;99.90;;;;;;5048508;28;20107;-74
2021/12/02 08:15:57;;;;;;;1.58;0.80;;;3.80;99.90;;;;;;5052356;28;20121;-73
2021/12/02 08:18:24;;;;;;;2.45;1.10;;;3.80;99.90;;;;;;5050672;28;20079;-75
2021/12/02 08:20:51;;;;;;;1.88;1.00;;;3.80;99.90;;;;;;5049716;28;20087;-74
2021/12/02 08:23:18;;;;;;;2.53;1.00;;;3.80;99.90;;;;;;5035540;28;20102;-74
2021/12/02 08:25:50;;;;;;;2.88;0.98;;;3.80;99.90;;;;;;5036531;28;20039;-74
2021/12/02 08:28:17;;;;;;;1.83;1.40;;;3.80;99.90;;;;;;5023100;28;20060;-74
2021/12/02 08:30:49;;;;;;;1.55;1.05;;;3.90;99.90;;;;;;5046194;28;20168;-75
2021/12/02 08:33:21;;;;;;;2.17;1.17;;;3.90;99.90;;;;;;5033719;28;20588;-73
2021/12/02 08:35:48;;;;;;;4.25;0.95;;;3.90;99.90;;;;;;5033533;28;20045;-75
2021/12/02 08:38:17;;;;;;;1.77;0.90;;;3.90;99.90;;;;;;5035513;28;20060;-75
2021/12/02 08:40:49;;;;;;;1.75;1.23;;;3.90;99.90;;;;;;5052462;28;20037;-74
2021/12/02 08:43:21;;;;;;;1.73;1.13;;;3.90;99.90;;;;;;5052926;28;20064;-75
2021/12/02 08:45:53;;;;;;;2.22;0.82;;;3.90;99.90;;;;;;5052017;28;20076;-74
2021/12/02 08:48:25;;;;;;;2.90;1.13;;;3.90;99.90;;;;;;5035858;28;20135;-74
2021/12/02 08:50:52;;;;;;;3.13;1.20;;;3.90;99.90;;;;;;5051952;28;20524;-75
2021/12/02 08:53:23;;;;;;;3.92;1.00;;;3.90;99.90;;;;;;5030373;28;20068;-74
2021/12/02 08:55:55;;;;;;;3.25;1.02;;;3.90;99.90;;;;;;5028966;28;20064;-73
2021/12/02 08:58:27;;;;;;;4.47;2.67;;;3.90;99.90;;;;;;5042787;28;20037;-73
2021/12/02 09:00:59;;;;;;;1.52;0.90;;;3.90;99.90;;;;;;5033652;28;20079;-72
2021/12/02 09:03:33;;;;;;;2.30;1.20;;;3.90;99.90;;;;;;5031809;28;20080;-72
2021/12/02 09:06:00;;;;;;;2.25;0.85;;;3.90;99.90;;;;;;5032132;28;20076;-73
2021/12/02 09:08:27;;;;;;;3.30;1.17;;;4.00;99.90;;;;;;5013927;28;20045;-74
2021/12/02 09:10:59;;;;;;;6.10;1.83;;;4.00;99.90;;;;;;5037206;28;20112;-74
2021/12/02 09:13:26;;;;;;;1.73;0.70;;;4.10;99.90;;;;;;5048962;28;20144;-73
2021/12/02 09:15:53;;;;;;;3.58;1.00;;;4.10;99.90;;;;;;5034018;28;20132;-74
2021/12/02 09:18:26;;;;;;;1.10;0.88;;;4.10;99.90;;;;;;5050059;28;20964;-74
2021/12/02 09:20:58;;;;;;;1.80;0.65;;;4.10;99.90;;;;;;5049552;28;20047;-74
2021/12/02 09:23:30;;;;;;;3.30;0.90;;;4.10;99.90;;;;;;5051627;28;20120;-74
2021/12/02 09:26:04;;;;;;;1.77;1.30;;;4.10;99.90;;;;;;5015769;28;20048;-74
2021/12/02 09:28:32;;;;;;;1.33;1.05;;;4.10;99.90;;;;;;5031634;28;20144;-74
2021/12/02 09:30:59;;;;;;;2.85;1.00;;;4.20;99.90;;;;;;5045193;28;20064;-74
2021/12/02 09:33:28;;;;;;;2.00;1.15;;;4.30;99.90;;;;;;5050261;28;20496;-72
2021/12/02 09:36:02;;;;;;;2.95;0.90;;;4.40;99.90;;;;;;5038697;28;20072;-74
2021/12/02 09:38:34;;;;;;;3.78;1.00;;;4.50;99.90;;;;;;5036035;28;20544;-74
2021/12/02 09:41:06;;;;;;;2.72;1.10;;;4.50;99.90;;;;;;5045311;28;20766;-74
2021/12/02 09:43:33;;;;;;;0.98;0.60;;;4.50;99.90;;;;;;5049729;28;20053;-72
2021/12/02 09:46:00;;;;;;;3.47;1.08;;;4.60;99.90;;;;;;5040244;28;20464;-74
2021/12/02 09:48:33;;;;;;;1.50;0.80;;;4.60;99.90;;;;;;5003881;28;20041;-73
2021/12/02 09:51:08;;;;;;;1.75;0.90;;;4.60;99.90;;;;;;5026664;28;20068;-73
2021/12/02 09:53:51;;;;;;;7.05;1.17;;;4.60;99.90;;;;;;5021255;28;20044;-73
2021/12/02 09:56:46;;;;;;;4.03;1.10;;;4.70;99.90;;;;;;5046164;28;20049;-73
2021/12/02 09:59:28;;;;;;;2.33;0.95;;;4.60;99.90;;;;;;5037217;28;20049;-74
2021/12/02 10:02:03;;;;;;;4.60;2.35;;;4.70;99.90;;;;;;5050724;28;20123;-73
2021/12/02 10:04:42;;;;;;;2.92;1.00;;;4.70;99.90;;;;;;5046626;28;20411;-73
2021/12/02 10:07:34;;;;;;;3.00;1.05;;;4.80;99.90;;;;;;5034160;28;20123;-73
2021/12/02 10:13:05;;;;;;;4.93;0.90;;;4.90;99.90;;;;;;5039682;28;20473;-73
2021/12/02 10:15:40;;;;;;;2.03;1.20;;;5.00;99.90;;;;;;5030286;28;20052;-73
2021/12/02 10:18:13;;;;;;;4.75;0.98;;;5.00;99.90;;;;;;5049410;28;20575;-73
2021/12/02 10:20:43;;;;;;;2.53;0.73;;;5.10;99.90;;;;;;5042721;28;20072;-73
2021/12/02 10:23:28;;;;;;;2.03;0.80;;;5.10;99.90;;;;;;5028756;28;20072;-73
2021/12/02 10:26:04;;;;;;;2.08;0.88;;;5.20;99.90;;;;;;5048616;28;20056;-73
2021/12/02 10:28:41;;;;;;;5.38;1.00;;;5.20;99.90;;;;;;5044518;28;20072;-73
2021/12/02 10:31:16;;;;;;;2.47;0.93;;;5.30;99.90;;;;;;5051499;28;20041;-74
2021/12/02 10:33:53;;;;;;;3.10;1.30;;;5.20;99.90;;;;;;5047628;28;20121;-73
2021/12/02 10:36:34;;;;;;;3.37;1.10;;;5.20;99.90;;;;;;5046472;28;20484;-73
2021/12/02 10:39:17;;;;;;;2.58;0.80;;;5.20;99.90;;;;;;5036349;28;20076;-73
2021/12/02 10:41:47;;;;;;;2.08;0.77;;;5.20;99.90;;;;;;5021800;28;20068;-73
2021/12/02 10:44:23;;;;;;;3.33;0.90;;;5.30;99.90;;;;;;5048936;28;20199;-73
2021/12/02 10:47:11;;;;;;;2.33;0.95;;;5.40;99.90;;;;;;5050628;28;20075;-73
2021/12/02 10:49:47;;;;;;;1.67;0.60;;;5.30;99.90;;;;;;5050131;28;20068;-73
2021/12/02 10:52:34;;;;;;;2.80;0.80;;;5.30;99.90;;;;;;5049863;28;20479;-74
2021/12/02 10:55:10;;;;;;;2.63;0.90;;;5.30;99.90;;;;;;5048852;28;20085;-74
2021/12/02 10:57:56;;;;;;;3.97;0.90;;;5.20;99.90;;;;;;5032036;28;20053;-73
2021/12/02 11:00:32;;;;;;;1.90;0.73;;;5.20;99.90;;;;;;5048821;28;20139;-73
2021/12/02 11:03:08;;;;;;;1.45;0.73;;;5.20;99.90;;;;;;5049829;28;20143;-73
2021/12/02 11:05:36;;;;;;;4.07;0.85;;;5.30;99.90;;;;;;5049846;28;20111;-73
2021/12/02 11:08:04;;;;;;;2.95;0.77;;;5.20;99.90;;;;;;5032366;28;20077;-73
2021/12/02 11:10:46;;;;;;;2.10;0.70;;;5.10;99.90;;;;;;5049376;28;20146;-74
2021/12/02 11:13:24;;;;;;;2.30;0.70;;;5.10;99.90;;;;;;5049610;28;20480;-73
2021/12/02 11:15:56;;;;;;;1.33;0.60;;;5.00;99.90;;;;;;5048703;28;20044;-73
2021/12/02 11:18:23;;;;;;;1.80;0.68;;;4.90;99.90;;;;;;5049795;28;20141;-73
2021/12/02 11:20:59;;;;;;;3.30;1.10;;;4.80;99.90;;;;;;5049085;28;20051;-74
2021/12/02 11:23:37;;;;;;;1.77;0.68;;;4.70;99.90;;;;;;5050610;28;20441;-73
2021/12/02 11:26:15;;;;;;;5.43;1.00;;;4.70;99.90;;;;;;5048400;28;20127;-73
2021/12/02 11:28:49;;;;;;;2.20;0.80;;;4.60;99.90;;;;;;5053133;28;20456;-73
2021/12/02 11:31:19;;;;;;;3.53;1.23;;;4.50;99.90;;;;;;5059917;28;20094;-73
2021/12/02 11:33:54;;;;;;;2.60;1.35;;;4.50;99.90;;;;;;5054121;28;20116;-73
2021/12/02 11:36:28;;;;;;;4.93;1.00;;;4.60;99.90;;;;;;5053713;28;20045;-74
2021/12/02 11:38:58;;;;;;;2.53;1.20;;;4.70;99.90;;;;;;5049704;28;20065;-74
2021/12/02 11:41:31;;;;;;;4.22;0.80;;;4.80;99.90;;;;;;5055031;28;20124;-74
2021/12/02 11:44:03;;;;;;;2.07;0.77;;;4.80;99.90;;;;;;5054027;28;20419;-73
2021/12/02 11:46:34;;;;;;;2.10;0.93;;;4.90;99.90;;;;;;5053219;28;20087;-72
2021/12/02 11:49:06;;;;;;;3.33;0.70;;;5.00;99.90;;;;;;5053510;28;20128;-74
2021/12/02 11:51:38;;;;;;;2.97;0.85;;;5.00;99.90;;;;;;5054285;28;20438;-72
2021/12/02 11:54:06;;;;;;;2.38;1.45;;;5.00;99.90;;;;;;5036861;28;20091;-72
2021/12/02 11:56:38;;;;;;;4.78;0.90;;;5.00;99.90;;;;;;5053299;28;20500;-72
2021/12/02 11:59:09;;;;;;;1.73;1.05;;;5.10;99.90;;;;;;5051868;28;20045;-73
2021/12/02 12:01:43;;;;;;;2.20;0.90;;;5.10;99.90;;;;;;5042211;28;20453;-73
2021/12/02 12:04:15;;;;;;;1.15;0.80;;;5.10;99.90;;;;;;5052846;28;20515;-73
2021/12/02 12:06:42;;;;;;;3.17;0.80;;;5.00;99.90;;;;;;5032680;28;20080;-73
2021/12/02 12:09:16;;;;;;;2.30;0.90;;;4.90;99.90;;;;;;5053765;28;20056;-72
2021/12/02 12:11:50;;;;;;;2.63;0.65;;;4.90;99.90;;;;;;5050760;28;20045;-72
2021/12/02 12:14:36;;;;;;;3.92;1.33;;;4.90;99.90;;;;;;5053004;28;20131;-73
2021/12/02 12:17:09;;;;;;;5.03;2.00;;;5.00;99.90;;;;;;5032358;28;20046;-73
2021/12/02 12:19:50;;;;;;;3.28;1.30;;;5.10;99.90;;;;;;5032629;28;20140;-73
2021/12/02 12:22:30;;;;;;;4.07;1.30;;;5.10;99.90;;;;;;5038014;28;20527;-72
2021/12/02 12:25:06;;;;;;;2.72;1.00;;;5.20;99.90;;;;;;5051901;28;20055;-73
2021/12/02 12:27:39;;;;;;;4.82;1.05;;;5.10;99.90;;;;;;5025231;28;20033;-72
2021/12/02 12:30:19;;;;;;;1.75;0.93;;;5.20;99.90;;;;;;5051140;28;20511;-73
2021/12/02 12:38:27;;;;;;;2.05;0.82;;;5.20;99.90;;;;;;5044431;28;20045;-72
2021/12/02 12:41:12;;;;;;;0.82;0.70;;;5.10;99.90;;;;;;5049422;28;20116;-74
2021/12/02 12:43:50;;;;;;;2.38;0.80;;;5.10;99.90;;;;;;5050045;28;20135;-72
2021/12/02 12:46:30;;;;;;;2.20;0.93;;;5.10;99.90;;;;;;5051763;28;20037;-73
2021/12/02 12:49:16;;;;;;;5.75;1.17;;;5.00;99.90;;;;;;5051865;28;20112;-73
2021/12/02 12:51:55;;;;;;;3.40;0.90;;;5.00;99.90;;;;;;5051960;28;20063;-73
2021/12/02 12:54:24;;;;;;;1.05;0.65;;;5.10;99.90;;;;;;5048219;28;20139;-73
2021/12/02 12:57:06;;;;;;;4.70;1.17;;;5.10;99.90;;;;;;5047680;28;20148;-73
2021/12/02 12:59:55;;;;;;;2.40;1.70;;;5.10;99.90;;;;;;5047012;28;20064;-73
2021/12/02 13:02:32;;;;;;;2.05;0.77;;;5.10;99.90;;;;;;5050023;28;20575;-73
2021/12/02 13:05:04;;;;;;;;;;;5.10;99.90;;;;;;5041979;28;20114;-73
2021/12/02 13:07:36;;;;;;;4.05;0.70;;;5.00;99.90;;;;;;5045694;28;20015;-74
2021/12/02 13:10:12;;;;;;;0.77;0.68;;;5.00;99.90;;;;;;5044673;28;20504;-74
2021/12/02 13:12:54;;;;;;;0.95;0.70;;;4.60;99.90;;;;;;5031901;28;20136;-72
2021/12/02 13:15:27;;;;;;;2.00;1.02;;;3.60;99.90;;;;;;5045237;28;20049;-73
2021/12/02 13:18:02;;;;;;;2.15;0.93;;;2.90;99.90;;;;;;5034050;28;20133;-72
2021/12/02 13:20:41;;;;;;;1.25;0.82;;;2.50;99.90;;;;;;5051636;28;20387;-72
2021/12/02 13:23:13;;;;;;;1.52;0.90;;;2.40;99.90;;;;;;5049175;28;20587;-72
2021/12/02 13:25:54;;;;;;;0.73;0.30;;;2.20;99.90;;;;;;5031190;28;20048;-72
2021/12/02 13:28:43;;;;;;;0.98;0.55;;;2.10;99.90;;;;;;5031489;28;20116;-73
2021/12/02 13:31:12;;;;;;;1.05;0.65;;;2.10;99.90;;;;;;5032448;28;20069;-74
2021/12/02 13:33:49;;;;;;;2.08;1.00;;;2.00;99.90;;;;;;5030861;28;20140;-74
2021/12/02 13:36:33;;;;;;;0.80;0.70;;;2.00;99.90;;;;;;5042898;28;20115;-73
2021/12/02 13:39:09;;;;;;;1.88;1.17;;;1.90;99.90;;;;;;5036625;28;20542;-74
2021/12/02 13:41:42;;;;;;;0.82;0.60;;;2.00;99.90;;;;;;5037234;28;20121;-74
2021/12/02 13:44:23;;;;;;;2.15;1.00;;;2.00;99.90;;;;;;5031240;28;20073;-75
2021/12/02 13:46:58;;;;;;;2.47;1.95;;;2.10;99.90;;;;;;5029805;28;20060;-74
2021/12/02 13:49:31;;;;;;;1.63;1.15;;;2.20;99.90;;;;;;5031050;28;20080;-76
2021/12/02 13:52:25;;;;;;;1.92;1.38;;;2.40;99.90;;;;;;5014038;28;20559;-73
2021/12/02 13:55:13;;;;;;;1.80;1.05;;;2.50;99.90;;;;;;5030658;28;20516;-74
2021/12/02 13:57:55;;;;;;;5.45;3.35;;;2.80;99.90;;;;;;5029232;28;20148;-76